Strona główna
METAR-TAF:

METAR-TAF

Lotnisko :

Manicoré, Amazonas, Brazylia

Szerokość geograficzna: 05-49S, Długość geograficzna: 061-18W, wysokość: 50 m

Aktualna obserwacja pogody

Raport powstał 7 godziny i 16 minut temu, godzina 12:00 UTC
Wiatr 8 kt od wschód, zmienny między północny wschód i południowy wschód
Temperatura 24°C
Wilgotność 94%
Ciśnienie 1016 hPa
Widzialność 10 km lub więcej
Zachmurzenie całkowite na wysokości 400 ft
słaby deszcz

METAR: SBMY 301200Z AUTO 09008KT 050V130 9999 -RA OVC004 24/23 Q1016

czas: 15:16 (19:16 UTC)


TAF: brakujący

Obserwacja i prognoza pogody dla ponad 4000 lotnisk (raport METAR i TAF).

Dostępne stacje oznaczono żółtymi i czerwonymi punktami na mapie.

Najedź kursorem aby zobaczyć nazwę stacji.

Kliknij aby zobaczyć obserwacje i prognozy pogody.

Aby zmienić mapę: kliknij na zielony przycisk z czarnym krzyżykiem, aby powiększyć; na zielony przycisk z myślnikiem, aby pomniejszyć; na zielone strzałki, aby przejść do map sąsiednich.


METAR-TAF: